Time;durP1;ratioP1;P1;durP2;ratioP2;P2;SDS_P1;SDS_P2;PMS_P1;PMS_P2;Temp;Humidity;BMP_temperature;BMP_pressure;BME280_temperature;BME280_humidity;BME280_pressure;Samples;Min_cycle;Max_cycle;Signal;HPM_P1;HPM_P2
2023/09/03 00:03:05;;;;;;;14.40;12.80;;;;;;;16.43;86.65;99357.36;225824;1278;22532;-74
2023/09/03 00:08:07;;;;;;;17.30;13.40;;;;;;;16.36;86.41;99354.86;225946;1278;22587;-75
2023/09/03 00:13:09;;;;;;;16.90;13.70;;;;;;;16.29;86.64;99353.48;225913;1278;22580;-75
2023/09/03 00:18:14;;;;;;;15.60;13.40;;;;;;;16.19;86.67;99353.30;225936;1277;22556;-75
2023/09/03 00:23:17;;;;;;;14.50;13.10;;;;;;;16.09;87.01;99354.52;225864;1278;22544;-75
2023/09/03 00:28:19;;;;;;;15.00;13.50;;;;;;;15.95;86.76;99359.55;225954;1278;22552;-75
2023/09/03 00:33:21;;;;;;;25.80;21.80;;;;;;;15.77;86.71;99362.45;225807;1280;22566;-74
2023/09/03 00:38:23;;;;;;;23.70;20.20;;;;;;;15.62;86.73;99364.35;225981;1280;22552;-74
2023/09/03 00:43:26;;;;;;;23.30;18.20;;;;;;;15.54;87.22;99365.44;225822;1278;22544;-75
2023/09/03 00:48:28;;;;;;;20.40;17.70;;;;;;;15.50;87.36;99367.39;225888;1280;22534;-75
2023/09/03 00:53:34;;;;;;;20.00;17.90;;;;;;;15.54;87.92;99366.50;225957;1278;22537;-74
2023/09/03 00:58:36;;;;;;;20.70;18.20;;;;;;;15.55;87.98;99361.52;225798;1280;22548;-75
2023/09/03 01:03:39;;;;;;;22.70;17.40;;;;;;;15.54;87.87;99361.47;225909;1278;22537;-75
2023/09/03 01:08:42;;;;;;;19.20;17.20;;;;;;;15.50;88.08;99359.57;225910;1278;22575;-75
2023/09/03 01:14:13;;;;;;;20.80;17.30;;;;;;;15.43;88.04;99361.74;225926;1278;22544;-75
2023/09/03 01:19:24;;;;;;;19.50;17.30;;;;;;;15.35;87.97;99358.26;225822;1277;22576;-74
2023/09/03 01:24:53;;;;;;;23.90;17.90;;;;;;;15.27;88.23;99359.73;225919;1277;22955;-75
2023/09/03 01:29:55;;;;;;;;;;;;;;;15.22;88.05;99360.13;225911;1278;23248;-75
2023/09/03 01:34:58;;;;;;;19.70;16.40;;;;;;;15.18;88.24;99361.11;225702;1278;197507;-76
2023/09/03 01:40:00;;;;;;;17.70;15.70;;;;;;;15.17;88.67;99362.48;225936;1280;22539;-75
2023/09/03 01:45:03;;;;;;;19.80;16.20;;;;;;;15.17;88.81;99372.48;225932;1278;22539;-73
2023/09/03 01:50:29;;;;;;;17.80;15.80;;;;;;;15.15;89.02;99372.11;225910;1259;25469;-74
2023/09/03 01:55:35;;;;;;;18.00;15.10;;;;;;;15.15;89.18;99366.58;225936;1277;22538;-74
2023/09/03 02:00:39;;;;;;;17.20;14.90;;;;;;;15.17;89.10;99363.69;225898;1278;22542;-74
2023/09/03 02:05:41;;;;;;;17.40;15.70;;;;;;;15.18;89.11;99361.64;225918;1278;25551;-74
2023/09/03 02:10:43;;;;;;;18.40;16.30;;;;;;;15.20;89.23;99356.89;225898;1280;22546;-74
2023/09/03 02:15:45;;;;;;;17.60;15.70;;;;;;;15.22;89.23;99362.26;225855;1278;22569;-74
2023/09/03 02:20:47;;;;;;;18.80;15.60;;;;;;;15.23;89.53;99359.43;225788;1280;22556;-74
2023/09/03 02:26:02;;;;;;;16.50;14.90;;;;;;;15.22;89.34;99352.42;225941;1278;22544;-74
2023/09/03 02:31:03;;;;;;;16.90;15.20;;;;;;;15.24;89.43;99352.61;225963;1277;22820;-74
2023/09/03 02:36:06;;;;;;;18.40;16.40;;;;;;;15.28;89.39;99342.64;225942;1278;23648;-74
2023/09/03 02:41:07;;;;;;;18.50;16.50;;;;;;;15.31;89.51;99335.46;225950;1280;22532;-75
2023/09/03 02:46:09;;;;;;;18.20;16.30;;;;;;;15.32;89.48;99336.74;225939;1278;22735;-75
2023/09/03 02:51:11;;;;;;;19.20;17.00;;;;;;;15.31;89.49;99328.70;225809;1280;22553;-75
2023/09/03 02:56:14;;;;;;;20.90;18.00;;;;;;;15.27;89.50;99324.31;225982;1278;22575;-74
2023/09/03 03:01:18;;;;;;;19.50;17.50;;;;;;;15.22;89.80;99334.77;225917;1278;22527;-75
2023/09/03 03:06:20;;;;;;;19.90;17.90;;;;;;;15.17;89.88;99343.08;225765;1280;24651;-74
2023/09/03 03:11:23;;;;;;;21.80;17.20;;;;;;;15.16;89.94;99353.08;225917;1279;22537;-74
2023/09/03 03:16:29;;;;;;;18.90;16.90;;;;;;;15.19;89.92;99353.04;225896;1276;22559;-74
2023/09/03 03:21:32;;;;;;;17.90;15.70;;;;;;;15.24;90.31;99357.31;225801;1278;22566;-75
2023/09/03 03:26:37;;;;;;;18.70;16.70;;;;;;;15.31;90.21;99363.86;225895;1279;22544;-74
2023/09/03 03:31:42;;;;;;;17.80;15.90;;;;;;;15.37;90.08;99363.54;225963;1279;22537;-74
2023/09/03 03:36:45;;;;;;;17.80;14.70;;;;;;;15.39;89.86;99354.00;225746;1276;23388;-75
2023/09/03 03:41:47;;;;;;;19.20;15.20;;;;;;;15.40;89.71;99355.39;225954;1278;22545;-75
2023/09/03 03:46:51;;;;;;;17.40;15.40;;;;;;;15.40;89.77;99357.20;225940;1278;25353;-75
2023/09/03 03:51:53;;;;;;;18.70;15.80;;;;;;;15.41;89.68;99358.84;225916;1279;22548;-74
2023/09/03 03:56:55;;;;;;;15.50;13.80;;;;;;;15.39;89.60;99357.45;225957;1280;25337;-75
2023/09/03 04:01:57;;;;;;;15.30;13.70;;;;;;;15.33;89.56;99354.36;225963;1281;22555;-75
2023/09/03 04:06:59;;;;;;;17.60;15.80;;;;;;;15.28;89.84;99355.02;225943;1280;22556;-75
2023/09/03 04:12:01;;;;;;;18.10;14.60;;;;;;;15.28;90.05;99369.61;225788;1280;22990;-75
2023/09/03 04:17:04;;;;;;;18.50;16.60;;;;;;;15.32;90.23;99361.19;225953;1280;22555;-74
2023/09/03 04:22:06;;;;;;;19.10;16.80;;;;;;;15.39;90.63;99364.57;225863;1278;22567;-75
2023/09/03 04:27:08;;;;;;;17.80;16.10;;;;;;;15.46;90.39;99376.36;225922;1279;22537;-75
2023/09/03 04:32:11;;;;;;;18.00;16.00;;;;;;;15.53;90.62;99382.61;225915;1281;22621;-75
2023/09/03 04:37:14;;;;;;;17.70;15.80;;;;;;;15.61;90.58;99387.70;225898;1277;22537;-75
2023/09/03 04:42:16;;;;;;;16.50;14.80;;;;;;;15.69;90.36;99375.78;225932;1279;22532;-75
2023/09/03 04:47:18;;;;;;;16.00;14.50;;;;;;;15.76;90.55;99377.31;225837;1280;22553;-75
2023/09/03 04:52:20;;;;;;;15.00;13.60;;;;;;;15.82;90.34;99382.20;225907;1278;22554;-74
2023/09/03 04:57:22;;;;;;;15.80;14.20;;;;;;;15.88;90.52;99392.11;225874;1281;25041;-74
2023/09/03 05:02:24;;;;;;;15.20;13.80;;;;;;;15.95;90.41;99400.55;225913;1278;22956;-75
2023/09/03 05:07:28;;;;;;;15.20;13.80;;;;;;;16.01;90.42;99397.17;225848;1278;23872;-75
2023/09/03 05:12:32;;;;;;;15.20;13.20;;;;;;;16.12;90.32;99400.69;225936;1278;22549;-74
2023/09/03 05:17:34;;;;;;;13.70;12.40;;;;;;;16.24;90.20;99404.30;225853;1280;22552;-75
2023/09/03 05:22:38;;;;;;;14.60;13.10;;;;;;;16.36;90.13;99403.45;225906;1279;22545;-75
2023/09/03 05:27:40;;;;;;;13.50;12.30;;;;;;;16.44;89.74;99403.98;225906;1281;22544;-75
2023/09/03 05:32:42;;;;;;;13.00;11.70;;;;;;;16.52;89.70;99415.83;225841;1275;22554;-75
2023/09/03 05:37:45;;;;;;;14.60;13.30;;;;;;;16.62;89.62;99418.15;225908;1281;22560;-75
2023/09/03 05:42:48;;;;;;;14.30;12.90;;;;;;;16.72;89.65;99422.48;225897;1281;22540;-75
2023/09/03 05:47:52;;;;;;;14.00;12.60;;;;;;;16.85;89.41;99426.94;225912;1277;22561;-74
2023/09/03 05:52:54;;;;;;;14.50;13.10;;;;;;;16.96;89.13;99428.23;225754;1281;22563;-74
2023/09/03 05:57:58;;;;;;;12.80;11.70;;;;;;;17.01;88.84;99425.60;225868;1281;22536;-76
2023/09/03 06:03:00;;;;;;;12.70;11.50;;;;;;;17.04;88.68;99427.36;225872;1276;22800;-74
2023/09/03 06:08:02;;;;;;;13.70;12.40;;;;;;;17.06;88.67;99420.75;225784;1281;22521;-75
2023/09/03 06:13:04;;;;;;;14.30;13.00;;;;;;;17.04;88.28;99419.14;225788;1281;22557;-74
2023/09/03 06:18:06;;;;;;;13.50;12.30;;;;;;;17.05;88.41;99421.30;225803;1277;22537;-75
2023/09/03 06:23:09;;;;;;;15.40;13.10;;;;;;;17.10;88.27;99425.00;225868;1278;22571;-75
2023/09/03 06:28:11;;;;;;;13.60;12.40;;;;;;;17.22;88.16;99421.88;225886;1279;25224;-75
2023/09/03 06:33:14;;;;;;;14.10;12.80;;;;;;;17.40;87.84;99416.84;225858;1276;22534;-75
2023/09/03 06:38:16;;;;;;;13.60;12.30;;;;;;;17.59;87.68;99433.89;225884;1276;22541;-74
2023/09/03 06:43:18;;;;;;;14.70;13.30;;;;;;;17.75;87.19;99442.06;225811;1278;22540;-76
2023/09/03 06:48:21;;;;;;;13.60;12.20;;;;;;;17.88;86.79;99434.37;225842;1276;22546;-74
2023/09/03 06:53:23;;;;;;;13.40;11.60;;;;;;;18.10;86.62;99442.08;225855;1280;22551;-75
2023/09/03 06:58:25;;;;;;;12.00;10.70;;;;;;;18.35;86.35;99444.54;225876;1281;22545;-76
2023/09/03 07:03:28;;;;;;;13.40;12.10;;;;;;;18.52;85.49;99453.52;225852;1276;22561;-76
2023/09/03 07:08:30;;;;;;;11.60;10.60;;;;;;;18.59;84.79;99464.86;225854;1277;24413;-75
2023/09/03 07:13:32;;;;;;;12.60;11.40;;;;;;;18.62;84.41;99465.45;225857;1280;22541;-75
2023/09/03 07:18:34;;;;;;;12.30;11.10;;;;;;;18.65;84.33;99467.44;225920;1280;22566;-75
2023/09/03 07:23:36;;;;;;;12.20;11.10;;;;;;;18.78;84.18;99464.41;225853;1280;23579;-76
2023/09/03 07:28:39;;;;;;;13.80;12.60;;;;;;;18.91;83.79;99462.46;225866;1280;22602;-74
2023/09/03 07:33:41;;;;;;;14.30;13.00;;;;;;;19.01;83.14;99469.52;225811;1280;22527;-75
2023/09/03 07:38:43;;;;;;;13.10;11.90;;;;;;;19.18;83.00;99476.95;225845;1257;22547;-74
2023/09/03 07:43:46;;;;;;;12.00;10.90;;;;;;;19.43;82.73;99487.16;225854;1276;24666;-75
2023/09/03 07:48:48;;;;;;;11.70;10.70;;;;;;;19.75;82.14;99487.95;225824;1276;25959;-76
2023/09/03 07:53:50;;;;;;;9.50;8.20;;;;;;;19.92;81.45;99500.39;225875;1275;22687;-75
2023/09/03 07:58:51;;;;;;;9.50;8.60;;;;;;;19.92;80.61;99504.46;225886;1265;22611;-76
2023/09/03 08:03:53;;;;;;;8.50;7.80;;;;;;;19.90;79.98;99504.91;225907;1280;22554;-75
2023/09/03 08:08:55;;;;;;;9.50;8.60;;;;;;;19.94;79.81;99507.25;225795;1276;25279;-75
2023/09/03 08:13:59;;;;;;;9.00;8.20;;;;;;;19.93;79.46;99503.27;225783;1276;22590;-75
2023/09/03 08:19:01;;;;;;;9.10;8.30;;;;;;;19.96;79.74;99510.52;225801;1278;23702;-75
2023/09/03 08:24:03;;;;;;;9.30;8.30;;;;;;;20.27;79.88;99508.08;225876;1277;23157;-74
2023/09/03 08:29:05;;;;;;;9.10;8.30;;;;;;;20.56;79.15;99512.17;225901;1277;22599;-75
2023/09/03 08:34:07;;;;;;;8.90;8.10;;;;;;;20.86;78.74;99513.79;225790;1280;22541;-74
2023/09/03 08:39:09;;;;;;;9.30;8.50;;;;;;;21.10;77.89;99509.73;225841;1280;25375;-75
2023/09/03 08:44:34;;;;;;;9.10;8.30;;;;;;;21.20;77.02;99511.45;225825;1280;22533;-75
2023/09/03 08:49:38;;;;;;;8.60;7.80;;;;;;;21.34;77.07;99516.02;225805;1280;22547;-75
2023/09/03 08:54:40;;;;;;;10.10;9.20;;;;;;;21.45;76.77;99516.89;225865;1276;22688;-75
2023/09/03 08:59:42;;;;;;;10.80;9.70;;;;;;;21.45;75.58;99523.17;225894;1280;22580;-75
2023/09/03 09:04:44;;;;;;;10.60;9.60;;;;;;;21.31;75.24;99525.66;225848;1278;22544;-75
2023/09/03 09:09:50;;;;;;;9.60;8.70;;;;;;;21.33;75.47;99522.20;225869;1277;22574;-75
2023/09/03 09:14:59;;;;;;;10.70;9.90;;;;;;;21.37;75.16;99526.52;225769;1278;25947;-74
2023/09/03 09:20:01;;;;;;;11.00;10.00;;;;;;;21.42;74.86;99520.91;225828;1280;22606;-74
2023/09/03 09:25:03;;;;;;;11.20;10.10;;;;;;;21.56;74.42;99517.02;225804;1279;24210;-75
2023/09/03 09:30:13;;;;;;;10.10;9.30;;;;;;;21.66;74.40;99520.81;225857;1276;22553;-76
2023/09/03 09:35:24;;;;;;;10.70;9.70;;;;;;;21.67;73.71;99524.97;225894;1276;22954;-74
2023/09/03 09:40:28;;;;;;;10.30;9.40;;;;;;;21.47;73.14;99526.71;225816;1276;22612;-75
2023/09/03 09:45:31;;;;;;;9.60;8.70;;;;;;;21.33;73.00;99529.31;225906;1280;22536;-75
2023/09/03 09:50:35;;;;;;;9.20;8.30;;;;;;;21.43;73.20;99523.73;225859;1280;22548;-75
2023/09/03 09:55:37;;;;;;;7.90;7.20;;;;;;;21.69;72.79;99515.76;225772;1279;22582;-75
2023/09/03 10:00:43;;;;;;;7.00;6.40;;;;;;;22.07;72.50;99515.84;225817;1280;22552;-75
2023/09/03 10:05:49;;;;;;;7.90;7.10;;;;;;;22.31;70.93;99507.67;225813;1275;22547;-74
2023/09/03 10:10:51;;;;;;;7.50;6.90;;;;;;;22.39;70.18;99502.19;225873;1280;24949;-74
2023/09/03 10:15:54;;;;;;;6.70;6.10;;;;;;;22.17;69.16;99500.52;225876;1278;22543;-74
2023/09/03 10:20:59;;;;;;;6.90;6.30;;;;;;;22.04;70.03;99495.67;225859;1273;22563;-74
2023/09/03 10:26:05;;;;;;;6.60;6.00;;;;;;;22.14;69.63;99496.25;225913;1276;25323;-75
2023/09/03 10:31:11;;;;;;;6.20;5.60;;;;;;;22.16;68.89;99496.55;225852;1276;25269;-75
2023/09/03 10:36:18;;;;;;;6.50;5.90;;;;;;;22.22;68.31;99497.63;225844;1275;22811;-76
2023/09/03 10:41:24;;;;;;;6.30;5.70;;;;;;;22.38;68.06;99498.06;225838;1278;22598;-76
2023/09/03 10:46:26;;;;;;;6.20;5.60;;;;;;;22.53;67.30;99497.22;225757;1280;22670;-75
2023/09/03 10:51:37;;;;;;;6.10;5.50;;;;;;;22.78;67.40;99494.70;225767;1276;23054;-75
2023/09/03 10:57:05;;;;;;;6.70;5.80;;;;;;;23.06;66.99;99497.11;225853;1273;24219;-75
2023/09/03 11:02:34;;;;;;;5.80;5.30;;;;;;;22.84;65.59;99510.20;225824;1277;22560;-75
2023/09/03 11:07:36;;;;;;;5.80;5.30;;;;;;;22.55;66.19;99509.73;225816;1280;22547;-75
2023/09/03 11:12:39;;;;;;;6.30;4.80;;;;;;;22.59;66.52;99493.63;225815;1278;23154;-74
2023/09/03 11:17:42;;;;;;;5.90;5.30;;;;;;;22.80;66.17;99492.10;225889;1273;22583;-73
2023/09/03 11:22:44;;;;;;;6.60;5.50;;;;;;;22.96;65.66;99492.59;225835;1273;22537;-75
2023/09/03 11:27:49;;;;;;;5.40;4.90;;;;;;;22.77;65.01;99493.52;225894;1277;22697;-75
2023/09/03 11:32:50;;;;;;;5.30;4.80;;;;;;;22.61;65.43;99498.50;225842;1276;22536;-74
2023/09/03 11:37:53;;;;;;;5.20;4.80;;;;;;;22.63;65.04;99493.42;225784;1280;22549;-75
2023/09/03 11:42:57;;;;;;;5.20;4.50;;;;;;;22.81;64.73;99495.56;225877;1275;22544;-75
2023/09/03 11:47:59;;;;;;;4.90;4.50;;;;;;;23.09;64.61;99492.30;225814;1280;22540;-75
2023/09/03 11:53:04;;;;;;;5.20;4.60;;;;;;;23.23;64.13;99486.69;225764;1278;26016;-75
2023/09/03 11:58:09;;;;;;;5.10;4.50;;;;;;;23.14;63.91;99488.54;225901;1280;22548;-74
2023/09/03 12:03:12;;;;;;;4.40;4.00;;;;;;;23.09;64.08;99481.26;225783;1280;22550;-74
2023/09/03 12:08:14;;;;;;;4.40;4.10;;;;;;;23.04;63.50;99480.64;225906;1280;22839;-75
2023/09/03 12:13:35;;;;;;;4.10;3.70;;;;;;;23.04;63.25;99480.65;225927;1280;22539;-74
2023/09/03 12:18:38;;;;;;;4.50;3.90;;;;;;;23.14;63.34;99479.23;225856;1257;24208;-76
2023/09/03 12:23:45;;;;;;;4.10;3.80;;;;;;;23.17;62.96;99474.81;225827;1277;23787;-74
2023/09/03 12:28:47;;;;;;;3.70;3.40;;;;;;;23.30;62.27;99472.59;225877;1280;22566;-75
2023/09/03 12:33:50;;;;;;;3.30;3.00;;;;;;;23.53;61.39;99466.09;225788;1280;22555;-74
2023/09/03 12:38:53;;;;;;;3.60;3.30;;;;;;;23.60;60.91;99467.14;225822;1276;22558;-75
2023/09/03 12:43:56;;;;;;;4.90;3.60;;;;;;;23.67;60.36;99462.13;225804;1273;22577;-74
2023/09/03 12:48:58;;;;;;;3.90;3.60;;;;;;;23.74;59.99;99463.12;225894;1270;22593;-75
2023/09/03 12:54:00;;;;;;;3.80;3.50;;;;;;;23.71;59.79;99456.89;225837;1278;22543;-75
2023/09/03 12:59:05;;;;;;;3.20;3.00;;;;;;;23.75;59.55;99454.31;225910;1257;22543;-75
2023/09/03 13:04:10;;;;;;;3.60;3.30;;;;;;;23.89;59.03;99449.95;225935;1277;24420;-74
2023/09/03 13:09:12;;;;;;;3.20;2.90;;;;;;;23.94;58.71;99449.94;225901;1275;22537;-75
2023/09/03 13:14:13;;;;;;;3.20;3.00;;;;;;;24.08;58.71;99456.08;225871;1275;22640;-75
2023/09/03 13:19:15;;;;;;;3.20;3.00;;;;;;;24.16;58.03;99463.02;225888;1278;22550;-75
2023/09/03 13:24:17;;;;;;;3.40;3.10;;;;;;;24.03;58.22;99467.59;225909;1262;22559;-74
2023/09/03 13:29:19;;;;;;;3.50;3.10;;;;;;;23.73;59.16;99466.98;225919;1275;24247;-74
2023/09/03 13:34:21;;;;;;;2.90;2.70;;;;;;;23.43;59.68;99463.44;225772;1275;130658;-75
2023/09/03 13:39:23;;;;;;;2.60;2.40;;;;;;;23.17;60.11;99467.00;225675;1280;22592;-75
2023/09/03 13:44:25;;;;;;;2.50;2.40;;;;;;;22.97;60.25;99458.94;225931;1275;22553;-76
2023/09/03 13:49:27;;;;;;;2.80;2.60;;;;;;;22.88;60.99;99466.77;225894;1276;22579;-75
2023/09/03 13:54:29;;;;;;;2.60;2.40;;;;;;;22.87;61.41;99463.09;225857;1276;22618;-74
2023/09/03 13:59:34;;;;;;;3.10;2.50;;;;;;;22.84;61.59;99464.41;225893;1280;22559;-74
2023/09/03 14:04:36;;;;;;;2.50;2.40;;;;;;;22.86;61.78;99464.42;225962;1274;22543;-76
2023/09/03 14:09:38;;;;;;;3.20;2.50;;;;;;;22.87;61.19;99462.98;225935;1277;22616;-75
2023/09/03 14:14:39;;;;;;;2.90;2.60;;;;;;;22.80;61.58;99462.69;225960;1277;22573;-75
2023/09/03 14:19:41;;;;;;;2.80;2.60;;;;;;;22.93;61.43;99470.27;225947;1277;22563;-74
2023/09/03 14:24:44;;;;;;;2.40;2.20;;;;;;;23.12;60.57;99474.48;225840;1280;22566;-74
2023/09/03 14:29:46;;;;;;;2.90;2.70;;;;;;;23.18;60.05;99479.36;225853;1280;22546;-75
2023/09/03 14:34:48;;;;;;;2.30;2.20;;;;;;;23.02;60.30;99481.11;225893;1275;22549;-75
2023/09/03 14:39:50;;;;;;;4.40;2.60;;;;;;;22.81;60.75;99479.52;225936;1278;22540;-75
2023/09/03 14:44:52;;;;;;;2.80;2.60;;;;;;;22.61;61.56;99483.91;225989;1257;22545;-75
2023/09/03 14:49:54;;;;;;;5.50;3.30;;;;;;;22.39;62.07;99478.15;225835;1278;22560;-75
2023/09/03 14:54:55;;;;;;;2.80;2.60;;;;;;;22.18;62.39;99481.45;225926;1277;22548;-74
2023/09/03 14:59:58;;;;;;;2.80;2.60;;;;;;;22.03;63.06;99478.71;225977;1273;22535;-74
2023/09/03 15:05:00;;;;;;;2.70;2.40;;;;;;;21.99;63.32;99479.42;225958;1278;22536;-75
2023/09/03 15:10:01;;;;;;;3.30;2.60;;;;;;;21.90;63.26;99476.08;225928;1260;22600;-76
2023/09/03 15:15:04;;;;;;;2.80;2.40;;;;;;;21.77;63.46;99473.94;225972;1280;22543;-75
2023/09/03 15:20:08;;;;;;;3.50;2.20;;;;;;;21.76;63.75;99478.66;225843;1280;22533;-75
2023/09/03 15:25:10;;;;;;;2.60;2.40;;;;;;;21.78;63.84;99475.46;225888;1257;25226;-75
2023/09/03 15:30:12;;;;;;;2.70;2.40;;;;;;;21.74;63.35;99486.69;225937;1276;22653;-74
2023/09/03 15:35:14;;;;;;;2.60;2.40;;;;;;;21.71;63.51;99483.08;225958;1276;22536;-74
2023/09/03 15:40:16;;;;;;;3.10;2.20;;;;;;;21.70;63.62;99485.06;225925;1278;22735;-74
2023/09/03 15:45:18;;;;;;;2.30;2.10;;;;;;;21.68;63.58;99489.34;225849;1275;22547;-75
2023/09/03 15:50:20;;;;;;;2.50;2.00;;;;;;;21.63;63.49;99497.96;225916;1276;22535;-75
2023/09/03 15:55:23;;;;;;;2.40;2.20;;;;;;;21.55;63.18;99503.09;225968;1276;22590;-75
2023/09/03 16:00:25;;;;;;;3.00;2.70;;;;;;;21.46;62.83;99505.87;225842;1275;22544;-74
2023/09/03 16:05:27;;;;;;;3.40;2.90;;;;;;;21.32;62.72;99510.88;225961;1280;22546;-75
2023/09/03 16:10:29;;;;;;;2.80;2.50;;;;;;;21.14;62.71;99516.54;225922;1276;24314;-75
2023/09/03 16:15:31;;;;;;;3.50;2.50;;;;;;;20.93;63.09;99525.88;225940;1275;22556;-75
2023/09/03 16:20:36;;;;;;;3.00;2.70;;;;;;;20.74;63.70;99534.22;225946;1278;22550;-75
2023/09/03 16:25:38;;;;;;;3.10;2.50;;;;;;;20.60;64.32;99538.80;225800;1275;22571;-74
2023/09/03 16:30:40;;;;;;;2.70;2.50;;;;;;;20.48;64.74;99535.52;225898;1277;22533;-75
2023/09/03 16:35:44;;;;;;;5.10;2.70;;;;;;;20.37;65.24;99535.96;225799;1275;25275;-75
2023/09/03 16:40:46;;;;;;;2.80;2.60;;;;;;;20.26;65.52;99541.25;225944;1276;22563;-74
2023/09/03 16:45:48;;;;;;;2.90;2.60;;;;;;;20.14;65.74;99542.35;225928;1278;22536;-74
2023/09/03 16:50:53;;;;;;;4.00;2.70;;;;;;;20.00;65.98;99537.63;225947;1278;25009;-74
2023/09/03 16:55:55;;;;;;;3.30;2.60;;;;;;;19.88;66.38;99542.67;225971;1278;22536;-75
2023/09/03 17:00:57;;;;;;;3.60;2.50;;;;;;;19.74;66.54;99539.20;225973;1278;24392;-74
2023/09/03 17:05:59;;;;;;;4.00;3.10;;;;;;;19.61;66.84;99546.65;225867;1277;22704;-74
2023/09/03 17:11:01;;;;;;;3.40;2.60;;;;;;;19.48;67.18;99553.08;225850;1275;22552;-73
2023/09/03 17:16:03;;;;;;;3.00;2.70;;;;;;;19.35;67.53;99552.83;225830;1280;22609;-75
2023/09/03 17:21:05;;;;;;;4.00;3.10;;;;;;;19.22;67.93;99560.66;225864;1280;22558;-75
2023/09/03 17:26:08;;;;;;;3.00;2.70;;;;;;;19.09;68.26;99565.85;225957;1278;22586;-75
2023/09/03 17:31:29;;;;;;;3.50;2.80;;;;;;;18.95;68.70;99565.39;225903;1278;22572;-75
2023/09/03 17:36:33;;;;;;;3.80;3.00;;;;;;;18.84;69.06;99570.08;225900;1276;22680;-74
2023/09/03 17:41:35;;;;;;;3.70;3.40;;;;;;;18.73;69.55;99573.86;225915;1278;22536;-74
2023/09/03 17:46:36;;;;;;;4.10;3.40;;;;;;;18.63;69.88;99577.33;225846;1280;22551;-76
2023/09/03 17:51:39;;;;;;;3.40;3.10;;;;;;;18.54;70.23;99582.85;225896;1278;25394;-75
2023/09/03 17:56:41;;;;;;;4.40;3.10;;;;;;;18.47;70.48;99591.11;225973;1280;22543;-75
2023/09/03 18:01:47;;;;;;;4.40;3.10;;;;;;;18.41;70.88;99601.33;225947;1280;22551;-74
2023/09/03 18:06:49;;;;;;;3.30;2.90;;;;;;;18.32;70.93;99610.38;225866;1280;22573;-75
2023/09/03 18:11:51;;;;;;;3.00;2.80;;;;;;;18.23;71.12;99623.26;225867;1280;22574;-74
2023/09/03 18:16:53;;;;;;;3.30;2.90;;;;;;;18.15;71.41;99627.00;225836;1280;22547;-74
2023/09/03 18:21:55;;;;;;;5.00;3.30;;;;;;;18.11;71.66;99635.51;225974;1275;22537;-74
2023/09/03 18:26:57;;;;;;;3.30;3.00;;;;;;;18.05;71.85;99641.15;225914;1278;22549;-75
2023/09/03 18:31:59;;;;;;;3.50;3.10;;;;;;;17.96;71.95;99638.27;225923;1277;22547;-75
2023/09/03 18:37:01;;;;;;;4.60;3.20;;;;;;;17.86;72.09;99649.05;226009;1278;22536;-74
2023/09/03 18:42:03;;;;;;;4.40;3.30;;;;;;;17.78;72.25;99663.95;225985;1278;22900;-74
2023/09/03 18:47:05;;;;;;;3.90;2.90;;;;;;;17.72;72.25;99670.15;225888;1278;22546;-74
2023/09/03 18:52:07;;;;;;;3.30;3.00;;;;;;;17.67;72.26;99674.73;225762;1279;23116;-74
2023/09/03 18:57:10;;;;;;;3.00;2.70;;;;;;;17.61;72.33;99678.11;225877;1278;25266;-75
2023/09/03 19:02:15;;;;;;;3.20;2.60;;;;;;;17.54;72.35;99677.45;225908;1279;22540;-75
2023/09/03 19:07:18;;;;;;;4.00;2.70;;;;;;;17.46;72.18;99678.73;225910;1278;22563;-74
2023/09/03 19:12:20;;;;;;;2.90;2.40;;;;;;;17.36;72.15;99681.55;225937;1278;22539;-74
2023/09/03 19:17:23;;;;;;;2.70;2.20;;;;;;;17.25;72.28;99688.14;225802;1275;22648;-73
2023/09/03 19:22:25;;;;;;;3.20;2.60;;;;;;;17.12;72.31;99693.47;225964;1278;22540;-75
2023/09/03 19:27:27;;;;;;;2.50;2.30;;;;;;;17.01;72.43;99698.78;225748;1266;22739;-75
2023/09/03 19:32:30;;;;;;;3.80;2.70;;;;;;;16.90;72.84;99699.49;225974;1275;22563;-76
2023/09/03 19:37:32;;;;;;;3.20;2.50;;;;;;;16.81;72.93;99694.27;225887;1278;22523;-74
2023/09/03 19:42:40;;;;;;;3.40;2.50;;;;;;;16.75;73.27;99688.37;225951;1280;22536;-75
2023/09/03 19:48:20;;;;;;;2.30;2.10;;;;;;;16.67;73.48;99682.16;225989;1277;22522;-74
2023/09/03 19:53:23;;;;;;;3.00;2.70;;;;;;;16.63;73.56;99678.58;225972;1278;22587;-74
2023/09/03 19:58:26;;;;;;;3.40;2.90;;;;;;;16.57;73.79;99681.52;225916;1278;22555;-74
2023/09/03 20:03:30;;;;;;;3.00;2.70;;;;;;;16.54;73.93;99686.19;225825;1280;22553;-74
2023/09/03 20:08:33;;;;;;;3.70;2.70;;;;;;;16.52;74.06;99688.11;225770;1278;22613;-75
2023/09/03 20:13:36;;;;;;;3.40;3.10;;;;;;;16.50;74.12;99687.82;225846;1280;24218;-75
2023/09/03 20:18:38;;;;;;;3.40;2.80;;;;;;;16.46;74.19;99693.04;225684;1280;22544;-74
2023/09/03 20:23:40;;;;;;;3.10;2.60;;;;;;;16.42;74.35;99702.72;225966;1278;22938;-74
2023/09/03 20:28:42;;;;;;;3.30;2.90;;;;;;;16.40;74.42;99705.86;225769;1279;24437;-74
2023/09/03 20:33:49;;;;;;;3.20;2.90;;;;;;;16.37;74.50;99699.33;225971;1280;24231;-74
2023/09/03 20:38:51;;;;;;;3.00;2.70;;;;;;;16.32;74.67;99702.85;225914;1278;22612;-74
2023/09/03 20:43:53;;;;;;;3.40;2.50;;;;;;;16.24;74.85;99689.70;225920;1280;24916;-75
2023/09/03 20:49:00;;;;;;;3.00;2.70;;;;;;;16.14;74.76;99684.81;225929;1278;22590;-75
2023/09/03 20:54:02;;;;;;;3.30;2.80;;;;;;;16.02;75.09;99688.02;225901;1278;22552;-74
2023/09/03 20:59:04;;;;;;;3.10;2.80;;;;;;;15.90;75.24;99688.63;225832;1280;22577;-74
2023/09/03 21:04:06;;;;;;;3.30;3.00;;;;;;;15.80;75.45;99694.01;225868;1278;22560;-74
2023/09/03 21:09:13;;;;;;;3.90;2.90;;;;;;;15.71;75.57;99701.35;225905;1280;22544;-74
2023/09/03 21:14:14;;;;;;;3.10;2.90;;;;;;;15.61;75.60;99703.02;225985;1278;22537;-74
2023/09/03 21:19:17;;;;;;;3.50;3.20;;;;;;;15.50;75.94;99699.99;225933;1280;22523;-74
2023/09/03 21:24:18;;;;;;;3.00;2.80;;;;;;;15.41;76.21;99694.78;225887;1280;22560;-72
2023/09/03 21:29:20;;;;;;;3.80;2.90;;;;;;;15.35;76.26;99697.28;225905;1281;22560;-73
2023/09/03 21:34:27;;;;;;;3.80;3.30;;;;;;;15.26;76.50;99700.52;225874;1278;24202;-74
2023/09/03 21:39:29;;;;;;;3.60;3.20;;;;;;;15.19;77.01;99706.03;225959;1278;22574;-74
2023/09/03 21:44:31;;;;;;;3.50;3.20;;;;;;;15.11;76.94;99714.98;225974;1280;22565;-73
2023/09/03 21:49:33;;;;;;;3.80;3.40;;;;;;;15.05;77.17;99718.63;225811;1280;22544;-73
2023/09/03 21:54:36;;;;;;;4.40;3.50;;;;;;;14.99;77.43;99738.36;225954;1280;22548;-74
2023/09/03 21:59:37;;;;;;;5.50;3.30;;;;;;;14.94;77.59;99740.78;225932;1280;22560;-74
2023/09/03 22:04:39;;;;;;;5.20;3.50;;;;;;;14.91;78.02;99743.48;225953;1278;24259;-74
2023/09/03 22:09:41;;;;;;;3.90;3.20;;;;;;;14.89;77.93;99735.98;225906;1280;22535;-73
2023/09/03 22:14:43;;;;;;;3.80;3.50;;;;;;;14.84;78.15;99739.34;225885;1280;22554;-74
2023/09/03 22:19:45;;;;;;;4.10;3.70;;;;;;;14.83;78.36;99742.70;225927;1278;24780;-75
2023/09/03 22:24:47;;;;;;;4.70;3.90;;;;;;;14.81;78.76;99743.27;225894;1273;22539;-73
2023/09/03 22:29:49;;;;;;;4.30;3.80;;;;;;;14.84;78.85;99755.39;225911;1277;22595;-74
2023/09/03 22:34:51;;;;;;;5.10;3.80;;;;;;;14.87;78.95;99767.90;225879;1278;22555;-74
2023/09/03 22:39:52;;;;;;;4.50;4.10;;;;;;;14.90;79.26;99765.47;225900;1278;22643;-74
2023/09/03 22:44:54;;;;;;;4.80;3.70;;;;;;;14.91;79.37;99772.27;225846;1278;22540;-74
2023/09/03 22:49:56;;;;;;;4.30;3.90;;;;;;;14.91;79.50;99774.86;225980;1280;22534;-74
2023/09/03 22:54:58;;;;;;;5.00;3.80;;;;;;;14.92;79.47;99780.80;225929;1280;24870;-73
2023/09/03 23:00:00;;;;;;;4.70;3.90;;;;;;;14.90;79.71;99777.27;225663;1280;25266;-73
2023/09/03 23:05:03;;;;;;;4.40;4.00;;;;;;;14.86;79.61;99768.48;225962;1280;22533;-74
2023/09/03 23:10:07;;;;;;;4.60;3.70;;;;;;;14.78;79.76;99763.52;225923;1262;22540;-74
2023/09/03 23:15:10;;;;;;;4.30;3.90;;;;;;;14.73;79.94;99757.61;225922;1278;22542;-74
2023/09/03 23:20:12;;;;;;;4.10;3.80;;;;;;;14.67;80.02;99746.52;225970;1278;24932;-74